sensor_id;sensor_type;location;lat;lon;timestamp;P1;durP1;ratioP1;P2;durP2;ratioP2
27666;SDS011;15074;50.940;5.282;2023-02-26T00:01:12;6.82;;;3.83;;
27666;SDS011;15074;50.940;5.282;2023-02-26T00:25:15;13.48;;;4.43;;
27666;SDS011;15074;50.940;5.282;2023-02-26T00:30:11;9.38;;;4.35;;
27666;SDS011;15074;50.940;5.282;2023-02-26T00:32:37;9.45;;;4.18;;
27666;SDS011;15074;50.940;5.282;2023-02-26T00:41:59;7.20;;;3.97;;
27666;SDS011;15074;50.940;5.282;2023-02-26T01:01:19;7.43;;;3.33;;
27666;SDS011;15074;50.940;5.282;2023-02-26T01:03:45;9.38;;;3.60;;
27666;SDS011;15074;50.940;5.282;2023-02-26T01:09:35;7.95;;;3.67;;
27666;SDS011;15074;50.940;5.282;2023-02-26T01:12:06;6.65;;;3.50;;
27666;SDS011;15074;50.940;5.282;2023-02-26T01:17:34;11.15;;;3.65;;
27666;SDS011;15074;50.940;5.282;2023-02-26T01:53:38;12.80;;;4.22;;
27666;SDS011;15074;50.940;5.282;2023-02-26T01:58:49;9.85;;;4.32;;
27666;SDS011;15074;50.940;5.282;2023-02-26T02:01:15;9.77;;;4.88;;
27666;SDS011;15074;50.940;5.282;2023-02-26T02:30:37;6.57;;;4.10;;
27666;SDS011;15074;50.940;5.282;2023-02-26T02:43:54;9.15;;;3.53;;
27666;SDS011;15074;50.940;5.282;2023-02-26T03:35:14;6.72;;;2.80;;
27666;SDS011;15074;50.940;5.282;2023-02-26T03:37:51;5.78;;;2.83;;
27666;SDS011;15074;50.940;5.282;2023-02-26T03:57:36;12.88;;;4.00;;
27666;SDS011;15074;50.940;5.282;2023-02-26T04:17:10;8.98;;;3.45;;
27666;SDS011;15074;50.940;5.282;2023-02-26T04:22:21;7.43;;;4.25;;
27666;SDS011;15074;50.940;5.282;2023-02-26T04:24:48;6.80;;;5.10;;
27666;SDS011;15074;50.940;5.282;2023-02-26T05:35:01;3.28;;;2.05;;
27666;SDS011;15074;50.940;5.282;2023-02-26T05:47:56;3.80;;;2.00;;
27666;SDS011;15074;50.940;5.282;2023-02-26T06:37:14;4.47;;;1.92;;
27666;SDS011;15074;50.940;5.282;2023-02-26T06:43:02;5.05;;;1.67;;
27666;SDS011;15074;50.940;5.282;2023-02-26T07:20:38;7.93;;;2.65;;
27666;SDS011;15074;50.940;5.282;2023-02-26T07:23:03;4.30;;;1.20;;
27666;SDS011;15074;50.940;5.282;2023-02-26T07:25:29;4.93;;;1.30;;
27666;SDS011;15074;50.940;5.282;2023-02-26T07:27:55;5.82;;;1.38;;
27666;SDS011;15074;50.940;5.282;2023-02-26T07:30:22;3.20;;;1.60;;
27666;SDS011;15074;50.940;5.282;2023-02-26T08:10:35;2.50;;;1.05;;
27666;SDS011;15074;50.940;5.282;2023-02-26T08:13:03;3.78;;;1.10;;
27666;SDS011;15074;50.940;5.282;2023-02-26T08:15:29;2.55;;;1.20;;
27666;SDS011;15074;50.940;5.282;2023-02-26T08:17:54;4.43;;;1.10;;
27666;SDS011;15074;50.940;5.282;2023-02-26T08:20:20;3.35;;;1.48;;
27666;SDS011;15074;50.940;5.282;2023-02-26T08:22:46;3.75;;;1.08;;
27666;SDS011;15074;50.940;5.282;2023-02-26T08:25:12;1.88;;;1.00;;
27666;SDS011;15074;50.940;5.282;2023-02-26T08:27:38;2.67;;;0.93;;
27666;SDS011;15074;50.940;5.282;2023-02-26T08:30:04;1.92;;;1.10;;
27666;SDS011;15074;50.940;5.282;2023-02-26T08:32:31;2.47;;;1.20;;
27666;SDS011;15074;50.940;5.282;2023-02-26T08:34:57;3.45;;;1.00;;
27666;SDS011;15074;50.940;5.282;2023-02-26T08:37:23;2.47;;;1.25;;
27666;SDS011;15074;50.940;5.282;2023-02-26T08:39:49;4.30;;;1.00;;
27666;SDS011;15074;50.940;5.282;2023-02-26T08:42:15;2.50;;;1.27;;
27666;SDS011;15074;50.940;5.282;2023-02-26T08:44:41;3.15;;;1.13;;
27666;SDS011;15074;50.940;5.282;2023-02-26T08:47:08;3.08;;;1.15;;
27666;SDS011;15074;50.940;5.282;2023-02-26T08:49:33;8.27;;;1.33;;
27666;SDS011;15074;50.940;5.282;2023-02-26T08:51:59;3.03;;;1.00;;
27666;SDS011;15074;50.940;5.282;2023-02-26T08:54:25;3.25;;;0.93;;
27666;SDS011;15074;50.940;5.282;2023-02-26T08:56:51;1.92;;;0.80;;
27666;SDS011;15074;50.940;5.282;2023-02-26T08:59:19;2.33;;;0.93;;
27666;SDS011;15074;50.940;5.282;2023-02-26T09:01:45;2.97;;;1.10;;
27666;SDS011;15074;50.940;5.282;2023-02-26T09:04:11;2.78;;;1.00;;
27666;SDS011;15074;50.940;5.282;2023-02-26T09:06:37;3.85;;;0.93;;
27666;SDS011;15074;50.940;5.282;2023-02-26T09:09:02;1.77;;;1.00;;
27666;SDS011;15074;50.940;5.282;2023-02-26T09:11:28;3.85;;;0.77;;
27666;SDS011;15074;50.940;5.282;2023-02-26T09:13:55;1.83;;;0.70;;
27666;SDS011;15074;50.940;5.282;2023-02-26T09:16:22;1.63;;;0.80;;
27666;SDS011;15074;50.940;5.282;2023-02-26T09:18:49;1.63;;;0.90;;
27666;SDS011;15074;50.940;5.282;2023-02-26T09:21:15;1.98;;;0.90;;
27666;SDS011;15074;50.940;5.282;2023-02-26T09:23:41;1.42;;;0.80;;
27666;SDS011;15074;50.940;5.282;2023-02-26T09:26:06;2.15;;;0.70;;
27666;SDS011;15074;50.940;5.282;2023-02-26T09:28:33;2.75;;;0.88;;
27666;SDS011;15074;50.940;5.282;2023-02-26T09:30:58;1.20;;;0.73;;
27666;SDS011;15074;50.940;5.282;2023-02-26T09:33:24;1.15;;;0.80;;
27666;SDS011;15074;50.940;5.282;2023-02-26T09:35:50;2.42;;;1.08;;
27666;SDS011;15074;50.940;5.282;2023-02-26T09:38:17;2.45;;;1.10;;
27666;SDS011;15074;50.940;5.282;2023-02-26T09:46:27;3.97;;;1.05;;
27666;SDS011;15074;50.940;5.282;2023-02-26T09:49:02;1.65;;;0.80;;
27666;SDS011;15074;50.940;5.282;2023-02-26T09:51:39;1.35;;;0.70;;
27666;SDS011;15074;50.940;5.282;2023-02-26T09:54:13;1.92;;;0.80;;
27666;SDS011;15074;50.940;5.282;2023-02-26T09:56:43;2.88;;;0.90;;
27666;SDS011;15074;50.940;5.282;2023-02-26T09:59:09;1.35;;;0.70;;
27666;SDS011;15074;50.940;5.282;2023-02-26T10:04:24;1.50;;;0.80;;
27666;SDS011;15074;50.940;5.282;2023-02-26T10:07:19;1.88;;;0.88;;
27666;SDS011;15074;50.940;5.282;2023-02-26T10:12:38;3.72;;;1.00;;
27666;SDS011;15074;50.940;5.282;2023-02-26T10:15:15;1.00;;;0.70;;
27666;SDS011;15074;50.940;5.282;2023-02-26T10:18:08;4.00;;;0.90;;
27666;SDS011;15074;50.940;5.282;2023-02-26T10:23:21;2.92;;;1.10;;
27666;SDS011;15074;50.940;5.282;2023-02-26T10:26:03;3.15;;;0.90;;
27666;SDS011;15074;50.940;5.282;2023-02-26T10:39:52;2.25;;;1.00;;
27666;SDS011;15074;50.940;5.282;2023-02-26T10:42:47;7.75;;;3.15;;
27666;SDS011;15074;50.940;5.282;2023-02-26T10:50:55;1.42;;;0.55;;
27666;SDS011;15074;50.940;5.282;2023-02-26T10:53:23;1.35;;;0.75;;
27666;SDS011;15074;50.940;5.282;2023-02-26T10:58:34;1.58;;;0.88;;
27666;SDS011;15074;50.940;5.282;2023-02-26T11:00:59;1.65;;;0.60;;
27666;SDS011;15074;50.940;5.282;2023-02-26T11:03:39;2.58;;;0.70;;
27666;SDS011;15074;50.940;5.282;2023-02-26T11:06:07;1.35;;;0.68;;
27666;SDS011;15074;50.940;5.282;2023-02-26T11:08:43;1.50;;;0.70;;
27666;SDS011;15074;50.940;5.282;2023-02-26T11:11:11;2.50;;;0.93;;
27666;SDS011;15074;50.940;5.282;2023-02-26T11:14:00;1.98;;;0.70;;
27666;SDS011;15074;50.940;5.282;2023-02-26T11:16:26;1.15;;;0.60;;
27666;SDS011;15074;50.940;5.282;2023-02-26T11:18:53;1.65;;;0.70;;
27666;SDS011;15074;50.940;5.282;2023-02-26T11:21:26;1.63;;;0.50;;
27666;SDS011;15074;50.940;5.282;2023-02-26T11:24:00;1.48;;;0.40;;
27666;SDS011;15074;50.940;5.282;2023-02-26T11:26:34;4.43;;;0.60;;
27666;SDS011;15074;50.940;5.282;2023-02-26T11:29:01;1.33;;;0.70;;
27666;SDS011;15074;50.940;5.282;2023-02-26T11:31:28;1.30;;;0.70;;
27666;SDS011;15074;50.940;5.282;2023-02-26T11:34:04;1.45;;;0.65;;
27666;SDS011;15074;50.940;5.282;2023-02-26T11:39:06;0.90;;;0.40;;
27666;SDS011;15074;50.940;5.282;2023-02-26T11:41:38;0.80;;;0.57;;
27666;SDS011;15074;50.940;5.282;2023-02-26T11:44:10;0.52;;;0.32;;
27666;SDS011;15074;50.940;5.282;2023-02-26T11:46:43;2.15;;;0.50;;
27666;SDS011;15074;50.940;5.282;2023-02-26T11:49:11;4.90;;;0.50;;
27666;SDS011;15074;50.940;5.282;2023-02-26T11:51:45;2.22;;;0.50;;
27666;SDS011;15074;50.940;5.282;2023-02-26T11:54:22;0.30;;;0.30;;
27666;SDS011;15074;50.940;5.282;2023-02-26T11:56:51;1.13;;;0.30;;
27666;SDS011;15074;50.940;5.282;2023-02-26T11:59:24;1.08;;;0.40;;
27666;SDS011;15074;50.940;5.282;2023-02-26T12:01:51;1.15;;;0.40;;
27666;SDS011;15074;50.940;5.282;2023-02-26T12:04:21;0.57;;;0.40;;
27666;SDS011;15074;50.940;5.282;2023-02-26T12:06:51;1.20;;;0.47;;
27666;SDS011;15074;50.940;5.282;2023-02-26T12:09:18;1.80;;;0.57;;
27666;SDS011;15074;50.940;5.282;2023-02-26T12:14:39;2.22;;;0.60;;
27666;SDS011;15074;50.940;5.282;2023-02-26T12:22:48;1.08;;;0.40;;
27666;SDS011;15074;50.940;5.282;2023-02-26T12:25:25;1.55;;;0.60;;
27666;SDS011;15074;50.940;5.282;2023-02-26T12:30:59;1.60;;;0.45;;
27666;SDS011;15074;50.940;5.282;2023-02-26T12:44:36;4.15;;;2.65;;
27666;SDS011;15074;50.940;5.282;2023-02-26T12:47:36;1.65;;;0.70;;
27666;SDS011;15074;50.940;5.282;2023-02-26T12:50:24;0.65;;;0.35;;
27666;SDS011;15074;50.940;5.282;2023-02-26T12:53:09;2.75;;;0.75;;
27666;SDS011;15074;50.940;5.282;2023-02-26T12:56:10;0.55;;;0.32;;
27666;SDS011;15074;50.940;5.282;2023-02-26T13:09:40;1.35;;;0.50;;
27666;SDS011;15074;50.940;5.282;2023-02-26T13:17:36;1.75;;;0.47;;
27666;SDS011;15074;50.940;5.282;2023-02-26T13:20:16;0.95;;;0.43;;
27666;SDS011;15074;50.940;5.282;2023-02-26T13:22:47;0.75;;;0.45;;
27666;SDS011;15074;50.940;5.282;2023-02-26T13:31:03;2.45;;;0.55;;
27666;SDS011;15074;50.940;5.282;2023-02-26T13:33:33;1.13;;;0.50;;
27666;SDS011;15074;50.940;5.282;2023-02-26T13:35:59;1.73;;;0.60;;
27666;SDS011;15074;50.940;5.282;2023-02-26T13:41:11;0.80;;;0.50;;
27666;SDS011;15074;50.940;5.282;2023-02-26T13:43:49;2.55;;;0.60;;
27666;SDS011;15074;50.940;5.282;2023-02-26T13:52:03;1.58;;;0.50;;
27666;SDS011;15074;50.940;5.282;2023-02-26T13:54:34;0.88;;;0.60;;
27666;SDS011;15074;50.940;5.282;2023-02-26T13:59:49;1.20;;;0.40;;
27666;SDS011;15074;50.940;5.282;2023-02-26T14:02:56;0.60;;;0.40;;
27666;SDS011;15074;50.940;5.282;2023-02-26T14:08:38;1.45;;;0.52;;
27666;SDS011;15074;50.940;5.282;2023-02-26T14:14:15;1.15;;;0.52;;
27666;SDS011;15074;50.940;5.282;2023-02-26T14:16:43;0.98;;;0.50;;
27666;SDS011;15074;50.940;5.282;2023-02-26T14:27:35;1.00;;;0.50;;
27666;SDS011;15074;50.940;5.282;2023-02-26T14:32:45;3.75;;;0.70;;
27666;SDS011;15074;50.940;5.282;2023-02-26T14:35:32;2.42;;;0.55;;
27666;SDS011;15074;50.940;5.282;2023-02-26T14:38:06;2.55;;;0.60;;
27666;SDS011;15074;50.940;5.282;2023-02-26T14:43:28;0.85;;;0.50;;
27666;SDS011;15074;50.940;5.282;2023-02-26T14:45:55;2.67;;;0.70;;
27666;SDS011;15074;50.940;5.282;2023-02-26T14:48:21;1.42;;;0.60;;
27666;SDS011;15074;50.940;5.282;2023-02-26T14:57:03;1.30;;;0.57;;
27666;SDS011;15074;50.940;5.282;2023-02-26T15:18:31;1.35;;;0.80;;
27666;SDS011;15074;50.940;5.282;2023-02-26T15:21:09;1.60;;;0.70;;
27666;SDS011;15074;50.940;5.282;2023-02-26T15:23:51;1.95;;;0.70;;
27666;SDS011;15074;50.940;5.282;2023-02-26T15:26:21;0.85;;;0.70;;
27666;SDS011;15074;50.940;5.282;2023-02-26T15:28:50;1.17;;;0.73;;
27666;SDS011;15074;50.940;5.282;2023-02-26T15:31:18;1.02;;;0.70;;
27666;SDS011;15074;50.940;5.282;2023-02-26T15:33:48;1.30;;;0.70;;
27666;SDS011;15074;50.940;5.282;2023-02-26T15:36:16;0.98;;;0.70;;
27666;SDS011;15074;50.940;5.282;2023-02-26T15:38:52;0.95;;;0.85;;
27666;SDS011;15074;50.940;5.282;2023-02-26T15:41:19;0.98;;;0.65;;
27666;SDS011;15074;50.940;5.282;2023-02-26T15:43:51;0.60;;;0.60;;
27666;SDS011;15074;50.940;5.282;2023-02-26T15:46:22;1.63;;;0.75;;
27666;SDS011;15074;50.940;5.282;2023-02-26T15:48:53;2.00;;;0.63;;
27666;SDS011;15074;50.940;5.282;2023-02-26T15:51:24;2.00;;;0.80;;
27666;SDS011;15074;50.940;5.282;2023-02-26T15:54:49;0.90;;;0.55;;
27666;SDS011;15074;50.940;5.282;2023-02-26T15:59:45;2.00;;;0.60;;
27666;SDS011;15074;50.940;5.282;2023-02-26T16:02:13;1.10;;;0.60;;
27666;SDS011;15074;50.940;5.282;2023-02-26T16:04:40;2.60;;;0.90;;
27666;SDS011;15074;50.940;5.282;2023-02-26T16:07:10;1.50;;;0.70;;
27666;SDS011;15074;50.940;5.282;2023-02-26T16:09:38;1.33;;;0.65;;
27666;SDS011;15074;50.940;5.282;2023-02-26T16:12:15;1.50;;;0.60;;
27666;SDS011;15074;50.940;5.282;2023-02-26T16:24:56;1.63;;;0.80;;
27666;SDS011;15074;50.940;5.282;2023-02-26T16:27:30;0.98;;;0.75;;
27666;SDS011;15074;50.940;5.282;2023-02-26T16:32:25;2.75;;;1.30;;
27666;SDS011;15074;50.940;5.282;2023-02-26T16:34:55;1.30;;;0.80;;
27666;SDS011;15074;50.940;5.282;2023-02-26T16:42:32;1.60;;;0.90;;
27666;SDS011;15074;50.940;5.282;2023-02-26T16:45:15;1.58;;;0.73;;
27666;SDS011;15074;50.940;5.282;2023-02-26T16:47:45;2.67;;;1.02;;
27666;SDS011;15074;50.940;5.282;2023-02-26T16:50:24;2.33;;;0.98;;
27666;SDS011;15074;50.940;5.282;2023-02-26T16:53:04;1.20;;;0.90;;
27666;SDS011;15074;50.940;5.282;2023-02-26T16:55:37;3.10;;;1.30;;
27666;SDS011;15074;50.940;5.282;2023-02-26T16:58:05;3.50;;;2.58;;
27666;SDS011;15074;50.940;5.282;2023-02-26T17:00:33;1.17;;;0.90;;
27666;SDS011;15074;50.940;5.282;2023-02-26T17:03:11;3.20;;;1.13;;
27666;SDS011;15074;50.940;5.282;2023-02-26T17:06:00;2.53;;;1.10;;
27666;SDS011;15074;50.940;5.282;2023-02-26T17:08:33;1.40;;;0.98;;
27666;SDS011;15074;50.940;5.282;2023-02-26T17:11:06;1.80;;;1.10;;
27666;SDS011;15074;50.940;5.282;2023-02-26T17:13:35;1.15;;;0.82;;
27666;SDS011;15074;50.940;5.282;2023-02-26T17:16:10;4.53;;;0.82;;
27666;SDS011;15074;50.940;5.282;2023-02-26T17:18:37;1.88;;;1.13;;
27666;SDS011;15074;50.940;5.282;2023-02-26T17:21:03;1.38;;;1.00;;
27666;SDS011;15074;50.940;5.282;2023-02-26T17:23:31;2.80;;;1.30;;
27666;SDS011;15074;50.940;5.282;2023-02-26T17:26:00;2.13;;;0.90;;
27666;SDS011;15074;50.940;5.282;2023-02-26T17:28:29;1.40;;;0.98;;
27666;SDS011;15074;50.940;5.282;2023-02-26T17:30:59;2.25;;;1.58;;
27666;SDS011;15074;50.940;5.282;2023-02-26T17:33:25;4.03;;;2.20;;
27666;SDS011;15074;50.940;5.282;2023-02-26T17:35:57;4.60;;;2.42;;
27666;SDS011;15074;50.940;5.282;2023-02-26T17:38:24;7.32;;;3.90;;
27666;SDS011;15074;50.940;5.282;2023-02-26T17:40:50;6.47;;;3.60;;
27666;SDS011;15074;50.940;5.282;2023-02-26T17:43:19;2.92;;;2.10;;
27666;SDS011;15074;50.940;5.282;2023-02-26T17:45:46;4.72;;;2.47;;
27666;SDS011;15074;50.940;5.282;2023-02-26T17:48:12;2.90;;;2.17;;
27666;SDS011;15074;50.940;5.282;2023-02-26T17:50:47;3.50;;;2.33;;
27666;SDS011;15074;50.940;5.282;2023-02-26T17:53:16;3.53;;;1.63;;
27666;SDS011;15074;50.940;5.282;2023-02-26T17:55:46;3.03;;;1.40;;
27666;SDS011;15074;50.940;5.282;2023-02-26T18:00:53;3.30;;;1.30;;
27666;SDS011;15074;50.940;5.282;2023-02-26T18:03:19;2.85;;;1.30;;
27666;SDS011;15074;50.940;5.282;2023-02-26T18:05:49;2.47;;;1.83;;
27666;SDS011;15074;50.940;5.282;2023-02-26T18:11:20;2.63;;;1.42;;
27666;SDS011;15074;50.940;5.282;2023-02-26T18:13:49;3.83;;;1.70;;
27666;SDS011;15074;50.940;5.282;2023-02-26T18:16:16;3.65;;;2.25;;
27666;SDS011;15074;50.940;5.282;2023-02-26T18:32:20;4.65;;;1.40;;
27666;SDS011;15074;50.940;5.282;2023-02-26T18:34:48;2.45;;;1.60;;
27666;SDS011;15074;50.940;5.282;2023-02-26T18:37:18;2.55;;;1.55;;
27666;SDS011;15074;50.940;5.282;2023-02-26T18:39:46;4.53;;;2.00;;
27666;SDS011;15074;50.940;5.282;2023-02-26T18:42:19;2.70;;;1.52;;
27666;SDS011;15074;50.940;5.282;2023-02-26T18:44:49;3.05;;;1.30;;
27666;SDS011;15074;50.940;5.282;2023-02-26T18:47:15;3.15;;;1.50;;
27666;SDS011;15074;50.940;5.282;2023-02-26T18:49:43;3.13;;;2.33;;
27666;SDS011;15074;50.940;5.282;2023-02-26T19:08:56;6.00;;;2.67;;
27666;SDS011;15074;50.940;5.282;2023-02-26T19:11:26;2.85;;;1.60;;
27666;SDS011;15074;50.940;5.282;2023-02-26T19:13:52;4.25;;;1.80;;
27666;SDS011;15074;50.940;5.282;2023-02-26T19:16:18;2.60;;;1.80;;
27666;SDS011;15074;50.940;5.282;2023-02-26T19:18:52;5.10;;;1.90;;
27666;SDS011;15074;50.940;5.282;2023-02-26T19:24:42;3.30;;;2.00;;
27666;SDS011;15074;50.940;5.282;2023-02-26T19:29:53;4.78;;;2.15;;
27666;SDS011;15074;50.940;5.282;2023-02-26T19:32:19;4.32;;;2.00;;
27666;SDS011;15074;50.940;5.282;2023-02-26T19:43:54;3.10;;;1.50;;
27666;SDS011;15074;50.940;5.282;2023-02-26T19:46:20;4.38;;;2.08;;
27666;SDS011;15074;50.940;5.282;2023-02-26T19:48:46;4.15;;;1.70;;
27666;SDS011;15074;50.940;5.282;2023-02-26T19:51:12;2.65;;;1.90;;
27666;SDS011;15074;50.940;5.282;2023-02-26T20:06:53;16.88;;;8.80;;
27666;SDS011;15074;50.940;5.282;2023-02-26T20:16:05;6.03;;;4.68;;
27666;SDS011;15074;50.940;5.282;2023-02-26T20:18:32;9.18;;;6.85;;
27666;SDS011;15074;50.940;5.282;2023-02-26T20:21:00;22.67;;;13.30;;
27666;SDS011;15074;50.940;5.282;2023-02-26T20:30:23;6.40;;;5.20;;
27666;SDS011;15074;50.940;5.282;2023-02-26T20:43:23;6.88;;;3.80;;
27666;SDS011;15074;50.940;5.282;2023-02-26T20:45:49;4.82;;;3.67;;
27666;SDS011;15074;50.940;5.282;2023-02-26T20:48:16;9.40;;;3.00;;
27666;SDS011;15074;50.940;5.282;2023-02-26T21:06:20;3.92;;;2.28;;
27666;SDS011;15074;50.940;5.282;2023-02-26T21:08:47;4.93;;;2.30;;
27666;SDS011;15074;50.940;5.282;2023-02-26T21:57:58;2.40;;;1.40;;
27666;SDS011;15074;50.940;5.282;2023-02-26T22:00:24;6.63;;;1.40;;
27666;SDS011;15074;50.940;5.282;2023-02-26T22:06:28;5.95;;;1.60;;
27666;SDS011;15074;50.940;5.282;2023-02-26T22:11:41;2.73;;;1.27;;
27666;SDS011;15074;50.940;5.282;2023-02-26T22:14:07;4.63;;;1.60;;
27666;SDS011;15074;50.940;5.282;2023-02-26T22:19:59;2.95;;;1.60;;
27666;SDS011;15074;50.940;5.282;2023-02-26T22:22:24;4.07;;;1.63;;
27666;SDS011;15074;50.940;5.282;2023-02-26T22:30:14;2.50;;;1.48;;
27666;SDS011;15074;50.940;5.282;2023-02-26T22:32:40;3.75;;;1.30;;
27666;SDS011;15074;50.940;5.282;2023-02-26T22:51:32;2.72;;;1.50;;
27666;SDS011;15074;50.940;5.282;2023-02-26T22:53:59;3.00;;;1.52;;
27666;SDS011;15074;50.940;5.282;2023-02-26T23:15:35;1.92;;;1.27;;
27666;SDS011;15074;50.940;5.282;2023-02-26T23:18:01;5.53;;;1.33;;
27666;SDS011;15074;50.940;5.282;2023-02-26T23:53:24;8.82;;;1.45;;
27666;SDS011;15074;50.940;5.282;2023-02-26T23:55:50;2.50;;;1.38;;
